sensor_id;sensor_type;location;lat;lon;timestamp;P1;durP1;ratioP1;P2;durP2;ratioP2
35245;SDS011;21379;50.962;6.960;2022-08-19T00:00:07;10.55;;;6.53;;
35245;SDS011;21379;50.962;6.960;2022-08-19T00:02:36;10.00;;;6.20;;
35245;SDS011;21379;50.962;6.960;2022-08-19T00:05:03;9.00;;;5.72;;
35245;SDS011;21379;50.962;6.960;2022-08-19T00:07:30;9.18;;;6.10;;
35245;SDS011;21379;50.962;6.960;2022-08-19T00:09:59;8.57;;;5.68;;
35245;SDS011;21379;50.962;6.960;2022-08-19T00:12:26;9.90;;;6.10;;
35245;SDS011;21379;50.962;6.960;2022-08-19T00:14:53;10.10;;;6.30;;
35245;SDS011;21379;50.962;6.960;2022-08-19T00:17:20;9.85;;;6.13;;
35245;SDS011;21379;50.962;6.960;2022-08-19T00:19:47;8.50;;;5.95;;
35245;SDS011;21379;50.962;6.960;2022-08-19T00:22:14;9.43;;;6.13;;
35245;SDS011;21379;50.962;6.960;2022-08-19T00:24:42;7.60;;;5.47;;
35245;SDS011;21379;50.962;6.960;2022-08-19T00:27:11;12.50;;;6.65;;
35245;SDS011;21379;50.962;6.960;2022-08-19T00:29:39;12.70;;;6.63;;
35245;SDS011;21379;50.962;6.960;2022-08-19T00:32:06;9.30;;;6.47;;
35245;SDS011;21379;50.962;6.960;2022-08-19T00:34:33;7.68;;;5.90;;
35245;SDS011;21379;50.962;6.960;2022-08-19T00:37:00;9.95;;;5.72;;
35245;SDS011;21379;50.962;6.960;2022-08-19T00:39:27;8.68;;;5.53;;
35245;SDS011;21379;50.962;6.960;2022-08-19T00:41:55;11.05;;;7.05;;
35245;SDS011;21379;50.962;6.960;2022-08-19T00:44:24;11.00;;;6.00;;
35245;SDS011;21379;50.962;6.960;2022-08-19T00:46:53;10.07;;;6.65;;
35245;SDS011;21379;50.962;6.960;2022-08-19T00:49:24;9.75;;;6.35;;
35245;SDS011;21379;50.962;6.960;2022-08-19T00:51:54;7.40;;;5.53;;
35245;SDS011;21379;50.962;6.960;2022-08-19T00:54:25;13.68;;;6.38;;
35245;SDS011;21379;50.962;6.960;2022-08-19T00:56:53;11.90;;;6.93;;
35245;SDS011;21379;50.962;6.960;2022-08-19T00:59:20;10.82;;;5.93;;
35245;SDS011;21379;50.962;6.960;2022-08-19T01:01:48;10.38;;;7.75;;
35245;SDS011;21379;50.962;6.960;2022-08-19T01:04:15;13.25;;;6.82;;
35245;SDS011;21379;50.962;6.960;2022-08-19T01:06:42;9.55;;;6.35;;
35245;SDS011;21379;50.962;6.960;2022-08-19T01:09:09;9.05;;;6.78;;
35245;SDS011;21379;50.962;6.960;2022-08-19T01:11:38;9.05;;;6.35;;
35245;SDS011;21379;50.962;6.960;2022-08-19T01:14:08;10.63;;;6.30;;
35245;SDS011;21379;50.962;6.960;2022-08-19T01:16:36;9.27;;;6.57;;
35245;SDS011;21379;50.962;6.960;2022-08-19T01:19:08;9.43;;;6.20;;
35245;SDS011;21379;50.962;6.960;2022-08-19T01:21:42;9.73;;;6.45;;
35245;SDS011;21379;50.962;6.960;2022-08-19T01:24:14;11.48;;;7.10;;
35245;SDS011;21379;50.962;6.960;2022-08-19T01:26:42;8.75;;;6.30;;
35245;SDS011;21379;50.962;6.960;2022-08-19T01:29:10;15.02;;;8.35;;
35245;SDS011;21379;50.962;6.960;2022-08-19T01:31:38;12.10;;;6.97;;
35245;SDS011;21379;50.962;6.960;2022-08-19T01:34:06;10.90;;;7.35;;
35245;SDS011;21379;50.962;6.960;2022-08-19T01:36:34;13.32;;;7.38;;
35245;SDS011;21379;50.962;6.960;2022-08-19T01:39:04;15.85;;;8.07;;
35245;SDS011;21379;50.962;6.960;2022-08-19T01:41:34;9.52;;;7.55;;
35245;SDS011;21379;50.962;6.960;2022-08-19T01:44:02;11.85;;;7.43;;
35245;SDS011;21379;50.962;6.960;2022-08-19T01:46:29;13.98;;;7.63;;
35245;SDS011;21379;50.962;6.960;2022-08-19T01:48:57;9.57;;;6.68;;
35245;SDS011;21379;50.962;6.960;2022-08-19T01:51:24;12.57;;;7.55;;
35245;SDS011;21379;50.962;6.960;2022-08-19T01:53:51;11.52;;;7.57;;
35245;SDS011;21379;50.962;6.960;2022-08-19T01:56:18;13.57;;;8.52;;
35245;SDS011;21379;50.962;6.960;2022-08-19T01:58:48;9.10;;;7.32;;
35245;SDS011;21379;50.962;6.960;2022-08-19T02:01:18;9.20;;;6.10;;
35245;SDS011;21379;50.962;6.960;2022-08-19T02:03:46;9.48;;;6.45;;
35245;SDS011;21379;50.962;6.960;2022-08-19T02:06:13;12.75;;;7.68;;
35245;SDS011;21379;50.962;6.960;2022-08-19T02:08:42;16.33;;;8.13;;
35245;SDS011;21379;50.962;6.960;2022-08-19T02:11:18;10.68;;;7.20;;
35245;SDS011;21379;50.962;6.960;2022-08-19T02:13:45;12.38;;;7.07;;
35245;SDS011;21379;50.962;6.960;2022-08-19T02:16:14;11.77;;;7.00;;
35245;SDS011;21379;50.962;6.960;2022-08-19T02:18:42;10.70;;;7.25;;
35245;SDS011;21379;50.962;6.960;2022-08-19T02:21:09;12.07;;;6.68;;
35245;SDS011;21379;50.962;6.960;2022-08-19T02:23:36;10.98;;;7.65;;
35245;SDS011;21379;50.962;6.960;2022-08-19T02:26:03;12.57;;;6.85;;
35245;SDS011;21379;50.962;6.960;2022-08-19T02:28:30;12.20;;;7.70;;
35245;SDS011;21379;50.962;6.960;2022-08-19T02:30:59;11.77;;;6.95;;
35245;SDS011;21379;50.962;6.960;2022-08-19T02:33:27;10.57;;;7.10;;
35245;SDS011;21379;50.962;6.960;2022-08-19T02:35:54;13.15;;;7.90;;
35245;SDS011;21379;50.962;6.960;2022-08-19T02:38:21;9.32;;;6.85;;
35245;SDS011;21379;50.962;6.960;2022-08-19T02:40:51;14.70;;;8.48;;
35245;SDS011;21379;50.962;6.960;2022-08-19T02:43:19;13.52;;;8.05;;
35245;SDS011;21379;50.962;6.960;2022-08-19T02:45:46;16.20;;;8.18;;
35245;SDS011;21379;50.962;6.960;2022-08-19T02:48:16;11.77;;;8.55;;
35245;SDS011;21379;50.962;6.960;2022-08-19T02:50:44;17.08;;;8.77;;
35245;SDS011;21379;50.962;6.960;2022-08-19T02:53:11;12.80;;;8.35;;
35245;SDS011;21379;50.962;6.960;2022-08-19T02:55:42;12.98;;;8.60;;
35245;SDS011;21379;50.962;6.960;2022-08-19T02:58:12;12.23;;;8.35;;
35245;SDS011;21379;50.962;6.960;2022-08-19T03:00:43;14.20;;;10.10;;
35245;SDS011;21379;50.962;6.960;2022-08-19T03:03:10;13.85;;;8.85;;
35245;SDS011;21379;50.962;6.960;2022-08-19T03:05:39;17.10;;;9.95;;
35245;SDS011;21379;50.962;6.960;2022-08-19T03:08:06;12.80;;;9.13;;
35245;SDS011;21379;50.962;6.960;2022-08-19T03:10:39;14.30;;;9.82;;
35245;SDS011;21379;50.962;6.960;2022-08-19T03:13:09;12.40;;;7.53;;
35245;SDS011;21379;50.962;6.960;2022-08-19T03:15:38;16.63;;;8.27;;
35245;SDS011;21379;50.962;6.960;2022-08-19T03:18:07;11.82;;;7.60;;
35245;SDS011;21379;50.962;6.960;2022-08-19T03:20:34;13.30;;;8.52;;
35245;SDS011;21379;50.962;6.960;2022-08-19T03:23:08;14.43;;;8.55;;
35245;SDS011;21379;50.962;6.960;2022-08-19T03:25:36;14.50;;;9.55;;
35245;SDS011;21379;50.962;6.960;2022-08-19T03:28:05;15.13;;;9.45;;
35245;SDS011;21379;50.962;6.960;2022-08-19T03:30:32;11.95;;;8.68;;
35245;SDS011;21379;50.962;6.960;2022-08-19T03:32:59;15.35;;;9.30;;
35245;SDS011;21379;50.962;6.960;2022-08-19T03:35:26;13.63;;;8.43;;
35245;SDS011;21379;50.962;6.960;2022-08-19T03:37:55;15.60;;;9.80;;
35245;SDS011;21379;50.962;6.960;2022-08-19T03:40:22;17.33;;;10.63;;
35245;SDS011;21379;50.962;6.960;2022-08-19T03:42:49;18.88;;;10.25;;
35245;SDS011;21379;50.962;6.960;2022-08-19T03:45:16;20.27;;;11.77;;
35245;SDS011;21379;50.962;6.960;2022-08-19T03:47:44;20.00;;;12.63;;
35245;SDS011;21379;50.962;6.960;2022-08-19T03:50:11;25.60;;;12.55;;
35245;SDS011;21379;50.962;6.960;2022-08-19T03:52:38;18.15;;;12.25;;
35245;SDS011;21379;50.962;6.960;2022-08-19T03:55:07;33.92;;;13.93;;
35245;SDS011;21379;50.962;6.960;2022-08-19T03:57:34;22.23;;;13.93;;
35245;SDS011;21379;50.962;6.960;2022-08-19T04:00:03;21.83;;;11.95;;
35245;SDS011;21379;50.962;6.960;2022-08-19T04:02:32;21.85;;;11.88;;
35245;SDS011;21379;50.962;6.960;2022-08-19T04:04:59;19.75;;;13.02;;
35245;SDS011;21379;50.962;6.960;2022-08-19T04:07:26;23.50;;;13.52;;
35245;SDS011;21379;50.962;6.960;2022-08-19T04:09:53;21.70;;;13.18;;
35245;SDS011;21379;50.962;6.960;2022-08-19T04:12:21;22.83;;;12.98;;
35245;SDS011;21379;50.962;6.960;2022-08-19T04:14:48;23.85;;;15.63;;
35245;SDS011;21379;50.962;6.960;2022-08-19T04:17:15;24.77;;;15.07;;
35245;SDS011;21379;50.962;6.960;2022-08-19T04:19:42;22.48;;;13.43;;
35245;SDS011;21379;50.962;6.960;2022-08-19T04:22:09;23.73;;;13.73;;
35245;SDS011;21379;50.962;6.960;2022-08-19T04:24:37;24.73;;;14.23;;
35245;SDS011;21379;50.962;6.960;2022-08-19T04:27:04;26.25;;;14.65;;
35245;SDS011;21379;50.962;6.960;2022-08-19T04:29:33;29.02;;;14.40;;
35245;SDS011;21379;50.962;6.960;2022-08-19T04:32:00;32.28;;;16.13;;
35245;SDS011;21379;50.962;6.960;2022-08-19T04:34:28;21.63;;;13.60;;
35245;SDS011;21379;50.962;6.960;2022-08-19T04:36:56;23.50;;;13.40;;
35245;SDS011;21379;50.962;6.960;2022-08-19T04:39:26;23.65;;;13.68;;
35245;SDS011;21379;50.962;6.960;2022-08-19T04:42:09;25.40;;;16.13;;
35245;SDS011;21379;50.962;6.960;2022-08-19T04:44:54;26.67;;;16.17;;
35245;SDS011;21379;50.962;6.960;2022-08-19T04:47:21;30.67;;;15.15;;
35245;SDS011;21379;50.962;6.960;2022-08-19T04:49:48;24.48;;;15.25;;
35245;SDS011;21379;50.962;6.960;2022-08-19T04:52:15;33.83;;;17.00;;
35245;SDS011;21379;50.962;6.960;2022-08-19T04:57:31;26.95;;;15.43;;
35245;SDS011;21379;50.962;6.960;2022-08-19T04:59:59;32.38;;;16.20;;
35245;SDS011;21379;50.962;6.960;2022-08-19T05:02:26;28.60;;;16.98;;
35245;SDS011;21379;50.962;6.960;2022-08-19T05:04:56;33.08;;;18.58;;
35245;SDS011;21379;50.962;6.960;2022-08-19T05:07:25;35.25;;;18.75;;
35245;SDS011;21379;50.962;6.960;2022-08-19T05:09:52;38.72;;;20.25;;
35245;SDS011;21379;50.962;6.960;2022-08-19T05:12:20;38.58;;;22.85;;
35245;SDS011;21379;50.962;6.960;2022-08-19T05:14:47;40.08;;;23.15;;
35245;SDS011;21379;50.962;6.960;2022-08-19T05:17:16;38.85;;;22.55;;
35245;SDS011;21379;50.962;6.960;2022-08-19T05:19:44;37.65;;;22.02;;
35245;SDS011;21379;50.962;6.960;2022-08-19T05:22:28;37.57;;;22.63;;
35245;SDS011;21379;50.962;6.960;2022-08-19T05:25:00;43.17;;;22.13;;
35245;SDS011;21379;50.962;6.960;2022-08-19T05:27:32;42.22;;;24.17;;
35245;SDS011;21379;50.962;6.960;2022-08-19T05:30:00;44.20;;;24.55;;
35245;SDS011;21379;50.962;6.960;2022-08-19T05:32:28;42.80;;;24.52;;
35245;SDS011;21379;50.962;6.960;2022-08-19T05:34:55;38.42;;;23.17;;
35245;SDS011;21379;50.962;6.960;2022-08-19T05:37:22;43.33;;;24.90;;
35245;SDS011;21379;50.962;6.960;2022-08-19T05:39:51;43.17;;;24.20;;
35245;SDS011;21379;50.962;6.960;2022-08-19T05:42:19;42.20;;;23.92;;
35245;SDS011;21379;50.962;6.960;2022-08-19T05:44:48;44.25;;;23.48;;
35245;SDS011;21379;50.962;6.960;2022-08-19T05:47:15;40.28;;;23.67;;
35245;SDS011;21379;50.962;6.960;2022-08-19T05:49:45;48.08;;;23.27;;
35245;SDS011;21379;50.962;6.960;2022-08-19T05:52:15;42.92;;;22.90;;
35245;SDS011;21379;50.962;6.960;2022-08-19T05:54:42;48.50;;;25.88;;
35245;SDS011;21379;50.962;6.960;2022-08-19T05:57:13;35.13;;;21.50;;
35245;SDS011;21379;50.962;6.960;2022-08-19T05:59:40;39.70;;;21.33;;
35245;SDS011;21379;50.962;6.960;2022-08-19T06:02:07;35.60;;;20.95;;
35245;SDS011;21379;50.962;6.960;2022-08-19T06:04:34;35.63;;;21.33;;
35245;SDS011;21379;50.962;6.960;2022-08-19T06:07:02;39.90;;;22.17;;
35245;SDS011;21379;50.962;6.960;2022-08-19T06:09:29;35.63;;;20.83;;
35245;SDS011;21379;50.962;6.960;2022-08-19T06:11:57;39.20;;;20.83;;
35245;SDS011;21379;50.962;6.960;2022-08-19T06:14:26;43.53;;;22.58;;
35245;SDS011;21379;50.962;6.960;2022-08-19T06:16:55;37.38;;;21.10;;
35245;SDS011;21379;50.962;6.960;2022-08-19T06:19:22;34.80;;;19.23;;
35245;SDS011;21379;50.962;6.960;2022-08-19T06:21:50;37.17;;;20.83;;
35245;SDS011;21379;50.962;6.960;2022-08-19T06:24:21;37.38;;;21.17;;
35245;SDS011;21379;50.962;6.960;2022-08-19T06:26:49;36.97;;;21.38;;
35245;SDS011;21379;50.962;6.960;2022-08-19T06:29:18;36.97;;;21.65;;
35245;SDS011;21379;50.962;6.960;2022-08-19T06:31:47;36.45;;;20.38;;
35245;SDS011;21379;50.962;6.960;2022-08-19T06:34:15;38.15;;;21.52;;
35245;SDS011;21379;50.962;6.960;2022-08-19T06:36:44;35.90;;;20.63;;
35245;SDS011;21379;50.962;6.960;2022-08-19T06:39:14;34.55;;;20.38;;
35245;SDS011;21379;50.962;6.960;2022-08-19T06:41:45;35.38;;;20.77;;
35245;SDS011;21379;50.962;6.960;2022-08-19T06:44:14;34.45;;;19.73;;
35245;SDS011;21379;50.962;6.960;2022-08-19T06:46:41;33.13;;;20.10;;
35245;SDS011;21379;50.962;6.960;2022-08-19T06:49:09;38.28;;;20.85;;
35245;SDS011;21379;50.962;6.960;2022-08-19T06:51:39;33.00;;;18.27;;
35245;SDS011;21379;50.962;6.960;2022-08-19T06:54:08;39.42;;;20.60;;
35245;SDS011;21379;50.962;6.960;2022-08-19T06:56:35;34.88;;;18.88;;
35245;SDS011;21379;50.962;6.960;2022-08-19T06:59:05;29.50;;;16.33;;
35245;SDS011;21379;50.962;6.960;2022-08-19T07:01:34;33.10;;;17.35;;
35245;SDS011;21379;50.962;6.960;2022-08-19T07:04:03;30.55;;;19.08;;
35245;SDS011;21379;50.962;6.960;2022-08-19T07:06:30;28.83;;;16.27;;
35245;SDS011;21379;50.962;6.960;2022-08-19T07:08:57;34.90;;;19.60;;
35245;SDS011;21379;50.962;6.960;2022-08-19T07:11:25;32.90;;;19.38;;
35245;SDS011;21379;50.962;6.960;2022-08-19T07:13:52;31.88;;;17.38;;
35245;SDS011;21379;50.962;6.960;2022-08-19T07:16:21;29.00;;;16.10;;
35245;SDS011;21379;50.962;6.960;2022-08-19T07:18:48;29.90;;;18.52;;
35245;SDS011;21379;50.962;6.960;2022-08-19T07:21:17;30.85;;;17.33;;
35245;SDS011;21379;50.962;6.960;2022-08-19T07:23:46;28.45;;;17.38;;
35245;SDS011;21379;50.962;6.960;2022-08-19T07:26:14;37.00;;;20.45;;
35245;SDS011;21379;50.962;6.960;2022-08-19T07:28:42;28.33;;;16.25;;
35245;SDS011;21379;50.962;6.960;2022-08-19T07:31:09;29.08;;;16.63;;
35245;SDS011;21379;50.962;6.960;2022-08-19T07:33:40;26.58;;;15.57;;
35245;SDS011;21379;50.962;6.960;2022-08-19T07:36:08;33.80;;;17.23;;
35245;SDS011;21379;50.962;6.960;2022-08-19T07:38:39;27.77;;;17.30;;
35245;SDS011;21379;50.962;6.960;2022-08-19T07:41:07;31.23;;;17.95;;
35245;SDS011;21379;50.962;6.960;2022-08-19T07:43:36;32.78;;;18.23;;
35245;SDS011;21379;50.962;6.960;2022-08-19T07:46:03;34.67;;;19.50;;
35245;SDS011;21379;50.962;6.960;2022-08-19T07:48:31;30.42;;;17.60;;
35245;SDS011;21379;50.962;6.960;2022-08-19T07:51:00;33.70;;;18.45;;
35245;SDS011;21379;50.962;6.960;2022-08-19T07:53:29;29.77;;;18.05;;
35245;SDS011;21379;50.962;6.960;2022-08-19T07:55:57;34.25;;;17.85;;
35245;SDS011;21379;50.962;6.960;2022-08-19T07:58:30;33.83;;;19.23;;
35245;SDS011;21379;50.962;6.960;2022-08-19T08:00:58;35.03;;;19.38;;
35245;SDS011;21379;50.962;6.960;2022-08-19T08:03:25;33.33;;;18.52;;
35245;SDS011;21379;50.962;6.960;2022-08-19T08:06:08;32.80;;;19.38;;
35245;SDS011;21379;50.962;6.960;2022-08-19T08:08:53;38.95;;;20.33;;
35245;SDS011;21379;50.962;6.960;2022-08-19T08:11:43;38.35;;;20.15;;
35245;SDS011;21379;50.962;6.960;2022-08-19T08:14:13;35.67;;;19.95;;
35245;SDS011;21379;50.962;6.960;2022-08-19T08:16:41;40.58;;;21.15;;
35245;SDS011;21379;50.962;6.960;2022-08-19T08:19:10;46.13;;;22.95;;
35245;SDS011;21379;50.962;6.960;2022-08-19T08:21:41;45.45;;;24.73;;
35245;SDS011;21379;50.962;6.960;2022-08-19T08:24:08;39.72;;;21.67;;
35245;SDS011;21379;50.962;6.960;2022-08-19T08:26:36;44.90;;;23.27;;
35245;SDS011;21379;50.962;6.960;2022-08-19T08:29:03;49.83;;;25.08;;
35245;SDS011;21379;50.962;6.960;2022-08-19T08:31:30;41.08;;;23.17;;
35245;SDS011;21379;50.962;6.960;2022-08-19T08:33:59;42.97;;;22.73;;
35245;SDS011;21379;50.962;6.960;2022-08-19T08:36:25;50.03;;;24.10;;
35245;SDS011;21379;50.962;6.960;2022-08-19T08:38:54;40.05;;;22.83;;
35245;SDS011;21379;50.962;6.960;2022-08-19T08:41:24;47.67;;;23.95;;
35245;SDS011;21379;50.962;6.960;2022-08-19T08:43:54;39.95;;;22.05;;
35245;SDS011;21379;50.962;6.960;2022-08-19T08:46:24;40.53;;;21.45;;
35245;SDS011;21379;50.962;6.960;2022-08-19T08:48:57;45.92;;;23.77;;
35245;SDS011;21379;50.962;6.960;2022-08-19T08:51:32;42.67;;;21.25;;
35245;SDS011;21379;50.962;6.960;2022-08-19T08:54:02;39.88;;;20.10;;
35245;SDS011;21379;50.962;6.960;2022-08-19T08:56:32;38.85;;;20.17;;
35245;SDS011;21379;50.962;6.960;2022-08-19T08:59:01;38.90;;;20.98;;
35245;SDS011;21379;50.962;6.960;2022-08-19T09:01:33;36.28;;;19.60;;
35245;SDS011;21379;50.962;6.960;2022-08-19T09:04:02;41.47;;;20.15;;
35245;SDS011;21379;50.962;6.960;2022-08-19T09:06:32;41.90;;;20.00;;
35245;SDS011;21379;50.962;6.960;2022-08-19T09:11:44;36.67;;;18.80;;
35245;SDS011;21379;50.962;6.960;2022-08-19T09:14:27;39.05;;;20.52;;
35245;SDS011;21379;50.962;6.960;2022-08-19T09:17:07;35.05;;;19.60;;
35245;SDS011;21379;50.962;6.960;2022-08-19T09:19:35;32.50;;;17.70;;
35245;SDS011;21379;50.962;6.960;2022-08-19T09:22:12;31.33;;;16.63;;
35245;SDS011;21379;50.962;6.960;2022-08-19T09:24:41;29.73;;;16.60;;
35245;SDS011;21379;50.962;6.960;2022-08-19T09:27:08;30.33;;;15.80;;
35245;SDS011;21379;50.962;6.960;2022-08-19T09:29:34;26.15;;;14.43;;
35245;SDS011;21379;50.962;6.960;2022-08-19T09:32:01;28.80;;;15.73;;
35245;SDS011;21379;50.962;6.960;2022-08-19T09:34:29;27.40;;;14.05;;
35245;SDS011;21379;50.962;6.960;2022-08-19T09:36:56;28.02;;;13.65;;
35245;SDS011;21379;50.962;6.960;2022-08-19T09:39:25;27.42;;;14.80;;
35245;SDS011;21379;50.962;6.960;2022-08-19T09:41:53;25.83;;;13.80;;
35245;SDS011;21379;50.962;6.960;2022-08-19T09:44:20;25.65;;;14.15;;
35245;SDS011;21379;50.962;6.960;2022-08-19T09:46:47;24.05;;;13.07;;
35245;SDS011;21379;50.962;6.960;2022-08-19T09:49:14;22.17;;;13.57;;
35245;SDS011;21379;50.962;6.960;2022-08-19T09:51:42;20.55;;;12.90;;
35245;SDS011;21379;50.962;6.960;2022-08-19T09:54:09;15.32;;;9.93;;
35245;SDS011;21379;50.962;6.960;2022-08-19T09:56:36;18.17;;;10.65;;
35245;SDS011;21379;50.962;6.960;2022-08-19T09:59:04;15.70;;;9.15;;
35245;SDS011;21379;50.962;6.960;2022-08-19T10:01:31;22.98;;;11.77;;
35245;SDS011;21379;50.962;6.960;2022-08-19T10:03:59;14.57;;;9.65;;
35245;SDS011;21379;50.962;6.960;2022-08-19T10:06:27;18.70;;;10.98;;
35245;SDS011;21379;50.962;6.960;2022-08-19T10:08:58;12.25;;;8.70;;
35245;SDS011;21379;50.962;6.960;2022-08-19T10:11:25;16.88;;;10.13;;
35245;SDS011;21379;50.962;6.960;2022-08-19T10:13:53;12.18;;;7.35;;
35245;SDS011;21379;50.962;6.960;2022-08-19T10:16:22;15.98;;;7.88;;
35245;SDS011;21379;50.962;6.960;2022-08-19T10:18:50;10.13;;;6.82;;
35245;SDS011;21379;50.962;6.960;2022-08-19T10:21:18;17.73;;;8.98;;
35245;SDS011;21379;50.962;6.960;2022-08-19T10:23:48;9.88;;;7.55;;
35245;SDS011;21379;50.962;6.960;2022-08-19T10:26:17;11.45;;;8.25;;
35245;SDS011;21379;50.962;6.960;2022-08-19T10:28:45;13.13;;;8.90;;
35245;SDS011;21379;50.962;6.960;2022-08-19T10:31:14;14.77;;;9.25;;
35245;SDS011;21379;50.962;6.960;2022-08-19T10:33:44;15.93;;;10.05;;
35245;SDS011;21379;50.962;6.960;2022-08-19T10:36:12;15.55;;;9.98;;
35245;SDS011;21379;50.962;6.960;2022-08-19T10:38:42;17.17;;;10.32;;
35245;SDS011;21379;50.962;6.960;2022-08-19T10:41:11;17.52;;;10.05;;
35245;SDS011;21379;50.962;6.960;2022-08-19T10:43:40;17.60;;;10.98;;
35245;SDS011;21379;50.962;6.960;2022-08-19T10:46:08;18.80;;;10.60;;
35245;SDS011;21379;50.962;6.960;2022-08-19T10:48:36;19.30;;;12.48;;
35245;SDS011;21379;50.962;6.960;2022-08-19T10:51:04;15.73;;;10.45;;
35245;SDS011;21379;50.962;6.960;2022-08-19T10:53:49;17.70;;;10.10;;
35245;SDS011;21379;50.962;6.960;2022-08-19T10:56:16;15.45;;;9.80;;
35245;SDS011;21379;50.962;6.960;2022-08-19T10:59:01;14.48;;;10.10;;
35245;SDS011;21379;50.962;6.960;2022-08-19T11:01:29;14.23;;;9.73;;
35245;SDS011;21379;50.962;6.960;2022-08-19T11:03:59;15.77;;;8.55;;
35245;SDS011;21379;50.962;6.960;2022-08-19T11:06:27;15.02;;;9.93;;
35245;SDS011;21379;50.962;6.960;2022-08-19T11:08:55;16.95;;;10.48;;
35245;SDS011;21379;50.962;6.960;2022-08-19T11:11:22;18.05;;;10.70;;
35245;SDS011;21379;50.962;6.960;2022-08-19T11:13:49;13.98;;;9.95;;
35245;SDS011;21379;50.962;6.960;2022-08-19T11:16:18;15.82;;;8.63;;
35245;SDS011;21379;50.962;6.960;2022-08-19T11:18:48;16.08;;;9.25;;
35245;SDS011;21379;50.962;6.960;2022-08-19T11:21:19;12.98;;;9.00;;
35245;SDS011;21379;50.962;6.960;2022-08-19T11:23:49;17.77;;;10.70;;
35245;SDS011;21379;50.962;6.960;2022-08-19T11:26:18;12.40;;;8.18;;
35245;SDS011;21379;50.962;6.960;2022-08-19T11:28:45;16.88;;;10.60;;
35245;SDS011;21379;50.962;6.960;2022-08-19T11:31:14;12.63;;;8.40;;
35245;SDS011;21379;50.962;6.960;2022-08-19T11:33:42;11.32;;;8.70;;
35245;SDS011;21379;50.962;6.960;2022-08-19T11:36:10;14.60;;;8.70;;
35245;SDS011;21379;50.962;6.960;2022-08-19T11:38:37;14.35;;;9.55;;
35245;SDS011;21379;50.962;6.960;2022-08-19T11:41:06;15.15;;;9.93;;
35245;SDS011;21379;50.962;6.960;2022-08-19T11:43:33;14.95;;;7.93;;
35245;SDS011;21379;50.962;6.960;2022-08-19T11:46:03;12.25;;;8.18;;
35245;SDS011;21379;50.962;6.960;2022-08-19T11:48:31;8.82;;;6.53;;
35245;SDS011;21379;50.962;6.960;2022-08-19T11:50:58;10.07;;;6.40;;
35245;SDS011;21379;50.962;6.960;2022-08-19T11:53:25;11.70;;;7.20;;
35245;SDS011;21379;50.962;6.960;2022-08-19T11:55:52;11.13;;;6.43;;
35245;SDS011;21379;50.962;6.960;2022-08-19T11:58:22;10.35;;;7.15;;
35245;SDS011;21379;50.962;6.960;2022-08-19T12:00:50;20.65;;;6.97;;
35245;SDS011;21379;50.962;6.960;2022-08-19T12:03:16;10.60;;;7.00;;
35245;SDS011;21379;50.962;6.960;2022-08-19T12:05:44;8.95;;;7.65;;
35245;SDS011;21379;50.962;6.960;2022-08-19T12:08:11;8.20;;;5.97;;
35245;SDS011;21379;50.962;6.960;2022-08-19T12:10:38;20.20;;;9.30;;
35245;SDS011;21379;50.962;6.960;2022-08-19T12:13:07;11.15;;;6.57;;
35245;SDS011;21379;50.962;6.960;2022-08-19T12:15:36;8.63;;;6.15;;
35245;SDS011;21379;50.962;6.960;2022-08-19T12:18:05;8.68;;;5.90;;
35245;SDS011;21379;50.962;6.960;2022-08-19T12:20:34;8.20;;;5.57;;
35245;SDS011;21379;50.962;6.960;2022-08-19T12:23:01;8.15;;;5.97;;
35245;SDS011;21379;50.962;6.960;2022-08-19T12:25:28;9.88;;;7.60;;
35245;SDS011;21379;50.962;6.960;2022-08-19T12:27:55;9.35;;;5.78;;
35245;SDS011;21379;50.962;6.960;2022-08-19T12:30:23;11.63;;;6.10;;
35245;SDS011;21379;50.962;6.960;2022-08-19T12:32:52;8.45;;;5.45;;
35245;SDS011;21379;50.962;6.960;2022-08-19T12:35:19;7.00;;;4.68;;
35245;SDS011;21379;50.962;6.960;2022-08-19T12:37:46;7.43;;;5.07;;
35245;SDS011;21379;50.962;6.960;2022-08-19T12:40:15;8.98;;;5.90;;
35245;SDS011;21379;50.962;6.960;2022-08-19T12:42:42;9.65;;;6.18;;
35245;SDS011;21379;50.962;6.960;2022-08-19T12:45:10;8.82;;;5.95;;
35245;SDS011;21379;50.962;6.960;2022-08-19T12:47:38;10.30;;;6.28;;
35245;SDS011;21379;50.962;6.960;2022-08-19T12:50:07;9.88;;;6.50;;
35245;SDS011;21379;50.962;6.960;2022-08-19T12:52:34;11.95;;;5.82;;
35245;SDS011;21379;50.962;6.960;2022-08-19T12:55:03;9.77;;;6.10;;
35245;SDS011;21379;50.962;6.960;2022-08-19T12:57:31;9.32;;;5.22;;
35245;SDS011;21379;50.962;6.960;2022-08-19T13:00:01;9.45;;;5.72;;
35245;SDS011;21379;50.962;6.960;2022-08-19T13:02:35;13.73;;;7.13;;
35245;SDS011;21379;50.962;6.960;2022-08-19T13:05:03;11.00;;;5.55;;
35245;SDS011;21379;50.962;6.960;2022-08-19T13:07:33;14.82;;;6.13;;
35245;SDS011;21379;50.962;6.960;2022-08-19T13:10:00;8.23;;;4.85;;
35245;SDS011;21379;50.962;6.960;2022-08-19T13:12:27;12.70;;;8.02;;
35245;SDS011;21379;50.962;6.960;2022-08-19T13:14:54;12.15;;;7.35;;
35245;SDS011;21379;50.962;6.960;2022-08-19T13:17:21;7.80;;;4.97;;
35245;SDS011;21379;50.962;6.960;2022-08-19T13:19:49;13.95;;;6.97;;
35245;SDS011;21379;50.962;6.960;2022-08-19T13:22:16;10.82;;;6.82;;
35245;SDS011;21379;50.962;6.960;2022-08-19T13:24:45;11.00;;;7.28;;
35245;SDS011;21379;50.962;6.960;2022-08-19T13:27:13;15.45;;;5.70;;
35245;SDS011;21379;50.962;6.960;2022-08-19T13:29:40;9.18;;;5.70;;
35245;SDS011;21379;50.962;6.960;2022-08-19T13:32:25;9.50;;;4.85;;
35245;SDS011;21379;50.962;6.960;2022-08-19T13:35:10;9.63;;;4.40;;
35245;SDS011;21379;50.962;6.960;2022-08-19T13:37:37;8.20;;;4.43;;
35245;SDS011;21379;50.962;6.960;2022-08-19T13:40:13;7.00;;;4.82;;
35245;SDS011;21379;50.962;6.960;2022-08-19T13:42:43;5.82;;;4.43;;
35245;SDS011;21379;50.962;6.960;2022-08-19T13:45:12;5.65;;;3.63;;
35245;SDS011;21379;50.962;6.960;2022-08-19T13:47:40;4.75;;;3.67;;
35245;SDS011;21379;50.962;6.960;2022-08-19T13:50:10;6.80;;;4.07;;
35245;SDS011;21379;50.962;6.960;2022-08-19T13:52:37;6.25;;;3.90;;
35245;SDS011;21379;50.962;6.960;2022-08-19T13:55:05;15.25;;;3.90;;
35245;SDS011;21379;50.962;6.960;2022-08-19T13:57:35;7.00;;;3.72;;
35245;SDS011;21379;50.962;6.960;2022-08-19T14:00:05;6.38;;;3.90;;
35245;SDS011;21379;50.962;6.960;2022-08-19T14:02:34;10.48;;;4.35;;
35245;SDS011;21379;50.962;6.960;2022-08-19T14:05:02;5.55;;;3.95;;
35245;SDS011;21379;50.962;6.960;2022-08-19T14:07:30;7.88;;;3.67;;
35245;SDS011;21379;50.962;6.960;2022-08-19T14:09:57;6.45;;;4.15;;
35245;SDS011;21379;50.962;6.960;2022-08-19T14:12:24;6.07;;;3.90;;
35245;SDS011;21379;50.962;6.960;2022-08-19T14:14:52;6.68;;;3.63;;
35245;SDS011;21379;50.962;6.960;2022-08-19T14:17:19;4.95;;;3.55;;
35245;SDS011;21379;50.962;6.960;2022-08-19T14:19:46;6.32;;;3.72;;
35245;SDS011;21379;50.962;6.960;2022-08-19T14:22:13;6.35;;;2.70;;
35245;SDS011;21379;50.962;6.960;2022-08-19T14:24:40;6.65;;;3.65;;
35245;SDS011;21379;50.962;6.960;2022-08-19T14:27:07;7.78;;;3.58;;
35245;SDS011;21379;50.962;6.960;2022-08-19T14:29:34;6.47;;;4.10;;
35245;SDS011;21379;50.962;6.960;2022-08-19T14:32:02;4.93;;;3.50;;
35245;SDS011;21379;50.962;6.960;2022-08-19T14:34:30;5.60;;;3.65;;
35245;SDS011;21379;50.962;6.960;2022-08-19T14:36:58;5.05;;;3.50;;
35245;SDS011;21379;50.962;6.960;2022-08-19T14:39:25;3.95;;;3.42;;
35245;SDS011;21379;50.962;6.960;2022-08-19T14:41:52;6.70;;;3.67;;
35245;SDS011;21379;50.962;6.960;2022-08-19T14:44:19;4.10;;;2.90;;